^^
Station Historical Data
Daily Summary for January 20, 2017 Units:  Both    English   Metric
« Previous Day
Next Day »
Daily Weekly Monthly Yearly Custom
  High: Low: Average:
Temperature: 89.8 °F /  32.1 °C 65.8 °F /  18.8 °C 76 °F /  24.4 °C
Dew Point: 53.6 °F /  12 °C 40.6 °F /  4.8 °C 49.1 °F /  9.5 °C
Humidity: 60% 19% 41%
Wind Speed: 11.0mph /  17.7km/h - 1.5mph /  2.4km/h
Wind Gust: 14.0mph /  22.5km/h - -
Wind- - SSE
Pressure: 29.72 in /  1006.3 hPa 29.58 in /  1001.6 hPa -
Precipitation: 0.00 in /  0 mm    
Historical Graphs
 
 
Tabular Data for January 20, 2017
Time Temperature Dew Point Pressure Wind Wind Speed Wind Gust Humidity Rainfall Rate (Hourly) solar Conditions
00:04 72.0 °F /  22.2 °C 50.7 °F /  10.4 °C 29.72in /  1006.3hPa SE 2.0mph /  3.2km/h 9.0mph /  14.5km/h 47% 0.00in /  0mm 0.0 W/m2
00:10 71.8 °F /  22.1 °C 51.1 °F /  10.6 °C 29.71in /  1006hPa SSW 6.0mph /  9.7km/h 11.0mph /  17.7km/h 48% 0.00in /  0mm 0.0 W/m2
00:16 71.4 °F /  21.9 °C 50.7 °F /  10.4 °C 29.71in /  1006hPa SE 4.0mph /  6.4km/h 7.0mph /  11.3km/h 48% 0.00in /  0mm 0.0 W/m2
00:22 71.2 °F /  21.8 °C 51.1 °F /  10.6 °C 29.71in /  1006hPa ESE 4.9mph /  7.9km/h 8.0mph /  12.9km/h 49% 0.00in /  0mm 0.0 W/m2
00:28 71.1 °F /  21.7 °C 50.9 °F /  10.5 °C 29.71in /  1006hPa SW 4.0mph /  6.4km/h 7.0mph /  11.3km/h 49% 0.00in /  0mm 0.0 W/m2
00:34 71.1 °F /  21.7 °C 50.9 °F /  10.5 °C 29.72in /  1006.3hPa ESE 2.0mph /  3.2km/h 7.0mph /  11.3km/h 49% 0.00in /  0mm 0.0 W/m2
00:40 70.9 °F /  21.6 °C 51.3 °F /  10.7 °C 29.72in /  1006.3hPa SSE 4.0mph /  6.4km/h 8.0mph /  12.9km/h 50% 0.00in /  0mm 0.0 W/m2
00:46 70.5 °F /  21.4 °C 51.4 °F /  10.8 °C 29.72in /  1006.3hPa SSE 4.0mph /  6.4km/h 9.0mph /  14.5km/h 51% 0.00in /  0mm 0.0 W/m2
00:52 70.3 °F /  21.3 °C 51.4 °F /  10.8 °C 29.72in /  1006.3hPa ESE 2.0mph /  3.2km/h 8.0mph /  12.9km/h 51% 0.00in /  0mm 0.0 W/m2
00:58 70.3 °F /  21.3 °C 51.8 °F /  11 °C 29.71in /  1006hPa SSW 0.9mph /  1.4km/h 6.0mph /  9.7km/h 52% 0.00in /  0mm 0.0 W/m2
01:04 70.2 °F /  21.2 °C 51.8 °F /  11 °C 29.71in /  1006hPa SSE 2.9mph /  4.7km/h 7.0mph /  11.3km/h 52% 0.00in /  0mm 0.0 W/m2
01:10 70.2 °F /  21.2 °C 52.2 °F /  11.2 °C 29.71in /  1006hPa Calm   3.0mph /  4.8km/h 53% 0.00in /  0mm 0.0 W/m2
01:16 70.0 °F /  21.1 °C 52.0 °F /  11.1 °C 29.71in /  1006hPa SSE 2.0mph /  3.2km/h 5.0mph /  8km/h 53% 0.00in /  0mm 0.0 W/m2
01:22 70.0 °F /  21.1 °C 52.0 °F /  11.1 °C 29.71in /  1006hPa NNW 0.9mph /  1.4km/h 1.0mph /  1.6km/h 53% 0.00in /  0mm 0.0 W/m2
01:28 69.6 °F /  20.9 °C 52.2 °F /  11.2 °C 29.70in /  1005.6hPa Calm   1.0mph /  1.6km/h 54% 0.00in /  0mm 0.0 W/m2
01:34 69.4 °F /  20.8 °C 52.2 °F /  11.2 °C 29.70in /  1005.6hPa Calm   1.0mph /  1.6km/h 54% 0.00in /  0mm 0.0 W/m2
01:40 69.4 °F /  20.8 °C 52.2 °F /  11.2 °C 29.70in /  1005.6hPa Calm     54% 0.00in /  0mm 0.0 W/m2
01:46 69.3 °F /  20.7 °C 52.0 °F /  11.1 °C 29.70in /  1005.6hPa Calm     54% 0.00in /  0mm 0.0 W/m2
01:52 69.1 °F /  20.6 °C 52.2 °F /  11.2 °C 29.70in /  1005.6hPa Calm   1.0mph /  1.6km/h 55% 0.00in /  0mm 0.0 W/m2
01:58 68.7 °F /  20.4 °C 52.0 °F /  11.1 °C 29.70in /  1005.6hPa NNW 0.9mph /  1.4km/h 1.0mph /  1.6km/h 55% 0.00in /  0mm 0.0 W/m2
02:04 68.7 °F /  20.4 °C 52.0 °F /  11.1 °C 29.70in /  1005.6hPa Calm   1.0mph /  1.6km/h 55% 0.00in /  0mm 0.0 W/m2
02:10 68.5 °F /  20.3 °C 51.8 °F /  11 °C 29.69in /  1005.3hPa Calm     55% 0.00in /  0mm 0.0 W/m2
02:16 68.5 °F /  20.3 °C 51.3 °F /  10.7 °C 29.69in /  1005.3hPa Calm   1.0mph /  1.6km/h 54% 0.00in /  0mm 0.0 W/m2
02:22 68.5 °F /  20.3 °C 50.7 °F /  10.4 °C 29.69in /  1005.3hPa Calm   1.0mph /  1.6km/h 53% 0.00in /  0mm 0.0 W/m2
02:28 68.5 °F /  20.3 °C 50.7 °F /  10.4 °C 29.69in /  1005.3hPa Calm     53% 0.00in /  0mm 0.0 W/m2
02:34 68.4 °F /  20.2 °C 51.1 °F /  10.6 °C 29.69in /  1005.3hPa Calm     54% 0.00in /  0mm 0.0 W/m2
02:41 68.4 °F /  20.2 °C 51.1 °F /  10.6 °C 29.69in /  1005.3hPa Calm     54% 0.00in /  0mm 0.0 W/m2
02:46 68.2 °F /  20.1 °C 50.9 °F /  10.5 °C 29.69in /  1005.3hPa Calm     54% 0.00in /  0mm 0.0 W/m2
02:52 67.8 °F /  19.9 °C 50.5 °F /  10.3 °C 29.69in /  1005.3hPa Calm     54% 0.00in /  0mm 0.0 W/m2
02:58 67.8 °F /  19.9 °C 50.5 °F /  10.3 °C 29.69in /  1005.3hPa Calm     54% 0.00in /  0mm 0.0 W/m2
03:04 67.6 °F /  19.8 °C 50.9 °F /  10.5 °C 29.69in /  1005.3hPa Calm     55% 0.00in /  0mm 0.0 W/m2
03:10 67.5 °F /  19.7 °C 50.7 °F /  10.4 °C 29.68in /  1005hPa ESE 0.9mph /  1.4km/h 2.0mph /  3.2km/h 55% 0.00in /  0mm 0.0 W/m2
03:16 67.5 °F /  19.7 °C 50.2 °F /  10.1 °C 29.68in /  1005hPa South 2.0mph /  3.2km/h 4.0mph /  6.4km/h 54% 0.00in /  0mm 0.0 W/m2
03:22 67.5 °F /  19.7 °C 50.2 °F /  10.1 °C 29.68in /  1005hPa Calm   1.0mph /  1.6km/h 54% 0.00in /  0mm 0.0 W/m2
03:28 67.6 °F /  19.8 °C 50.4 °F /  10.2 °C 29.68in /  1005hPa SE 2.9mph /  4.7km/h 4.0mph /  6.4km/h 54% 0.00in /  0mm 0.0 W/m2
03:34 67.6 °F /  19.8 °C 50.4 °F /  10.2 °C 29.68in /  1005hPa SE 2.0mph /  3.2km/h 3.0mph /  4.8km/h 54% 0.00in /  0mm 0.0 W/m2
03:40 67.6 °F /  19.8 °C 50.4 °F /  10.2 °C 29.68in /  1005hPa Calm   1.0mph /  1.6km/h 54% 0.00in /  0mm 0.0 W/m2
03:46 67.6 °F /  19.8 °C 50.4 °F /  10.2 °C 29.67in /  1004.6hPa Calm   1.0mph /  1.6km/h 54% 0.00in /  0mm 0.0 W/m2
03:52 67.5 °F /  19.7 °C 50.7 °F /  10.4 °C 29.67in /  1004.6hPa Calm   1.0mph /  1.6km/h 55% 0.00in /  0mm 0.0 W/m2
03:58 67.5 °F /  19.7 °C 50.7 °F /  10.4 °C 29.68in /  1005hPa Calm     55% 0.00in /  0mm 0.0 W/m2
04:04 67.3 °F /  19.6 °C 51.1 °F /  10.6 °C 29.68in /  1005hPa Calm     56% 0.00in /  0mm 0.0 W/m2
04:10 67.1 °F /  19.5 °C 50.9 °F /  10.5 °C 29.67in /  1004.6hPa Calm   2.0mph /  3.2km/h 56% 0.00in /  0mm 0.0 W/m2
04:16 67.1 °F /  19.5 °C 50.4 °F /  10.2 °C 29.67in /  1004.6hPa Calm     55% 0.00in /  0mm 0.0 W/m2
04:24 66.9 °F /  19.4 °C 51.3 °F /  10.7 °C 29.67in /  1004.6hPa Calm     57% 0.00in /  0mm 0.0 W/m2
04:30 66.9 °F /  19.4 °C 51.3 °F /  10.7 °C 29.67in /  1004.6hPa Calm     57% 0.00in /  0mm 0.0 W/m2
04:37 66.9 °F /  19.4 °C 50.7 °F /  10.4 °C 29.67in /  1004.6hPa Calm     56% 0.00in /  0mm 0.0 W/m2
04:43 66.9 °F /  19.4 °C 50.7 °F /  10.4 °C 29.67in /  1004.6hPa Calm     56% 0.00in /  0mm 0.0 W/m2
04:48 66.9 °F /  19.4 °C 50.7 °F /  10.4 °C 29.67in /  1004.6hPa Calm     56% 0.00in /  0mm 0.0 W/m2
04:54 66.9 °F /  19.4 °C 50.7 °F /  10.4 °C 29.67in /  1004.6hPa Calm     56% 0.00in /  0mm 0.0 W/m2
05:00 66.9 °F /  19.4 °C 50.7 °F /  10.4 °C 29.67in /  1004.6hPa Calm     56% 0.00in /  0mm 0.0 W/m2
05:06 67.1 °F /  19.5 °C 50.9 °F /  10.5 °C 29.67in /  1004.6hPa Calm   1.0mph /  1.6km/h 56% 0.00in /  0mm 0.0 W/m2
05:12 67.1 °F /  19.5 °C 50.9 °F /  10.5 °C 29.68in /  1005hPa NE 0.9mph /  1.4km/h 1.0mph /  1.6km/h 56% 0.00in /  0mm 0.0 W/m2
05:18 67.1 °F /  19.5 °C 50.9 °F /  10.5 °C 29.67in /  1004.6hPa Calm     56% 0.00in /  0mm 0.0 W/m2
05:24 67.1 °F /  19.5 °C 50.9 °F /  10.5 °C 29.68in /  1005hPa Calm     56% 0.00in /  0mm 0.0 W/m2
05:30 67.3 °F /  19.6 °C 51.4 °F /  10.8 °C 29.68in /  1005hPa Calm     57% 0.00in /  0mm 0.0 W/m2
05:36 67.1 °F /  19.5 °C 51.4 °F /  10.8 °C 29.68in /  1005hPa Calm     57% 0.00in /  0mm 0.0 W/m2
05:42 66.9 °F /  19.4 °C 51.3 °F /  10.7 °C 29.68in /  1005hPa Calm     57% 0.00in /  0mm 0.0 W/m2
05:48 66.9 °F /  19.4 °C 51.3 °F /  10.7 °C 29.68in /  1005hPa Calm     57% 0.00in /  0mm 0.0 W/m2
05:54 66.9 °F /  19.4 °C 51.6 °F /  10.9 °C 29.68in /  1005hPa Calm     58% 0.00in /  0mm 0.0 W/m2
06:00 66.7 °F /  19.3 °C 51.1 °F /  10.6 °C 29.69in /  1005.3hPa Calm     57% 0.00in /  0mm 0.0 W/m2
06:07 66.7 °F /  19.3 °C 51.4 °F /  10.8 °C 29.69in /  1005.3hPa Calm     58% 0.00in /  0mm 0.0 W/m2
06:12 66.6 °F /  19.2 °C 51.3 °F /  10.7 °C 29.69in /  1005.3hPa Calm     58% 0.00in /  0mm 0.0 W/m2
06:19 66.4 °F /  19.1 °C 51.1 °F /  10.6 °C 29.69in /  1005.3hPa Calm     58% 0.00in /  0mm 0.0 W/m2
06:25 66.0 °F /  18.9 °C 50.9 °F /  10.5 °C 29.69in /  1005.3hPa Calm     58% 0.00in /  0mm 0.0 W/m2
06:31 65.8 °F /  18.8 °C 51.1 °F /  10.6 °C 29.69in /  1005.3hPa Calm     59% 0.00in /  0mm 9.0 W/m2
06:37 65.8 °F /  18.8 °C 51.1 °F /  10.6 °C 29.69in /  1005.3hPa Calm     59% 0.00in /  0mm 19.0 W/m2
06:45 65.8 °F /  18.8 °C 51.1 °F /  10.6 °C 29.69in /  1005.3hPa Calm   1.0mph /  1.6km/h 59% 0.00in /  0mm 33.0 W/m2
06:51 65.8 °F /  18.8 °C 51.1 °F /  10.6 °C 29.69in /  1005.3hPa Calm     59% 0.00in /  0mm 35.0 W/m2
06:57 66.0 °F /  18.9 °C 51.8 °F /  11 °C 29.69in /  1005.3hPa Calm     60% 0.00in /  0mm 33.0 W/m2
07:03 66.0 °F /  18.9 °C 51.8 °F /  11 °C 29.70in /  1005.6hPa Calm   1.0mph /  1.6km/h 60% 0.00in /  0mm 51.0 W/m2
07:09 66.4 °F /  19.1 °C 52.2 °F /  11.2 °C 29.69in /  1005.3hPa Calm     60% 0.00in /  0mm 63.0 W/m2
07:15 66.6 °F /  19.2 °C 52.2 °F /  11.2 °C 29.70in /  1005.6hPa Calm   1.0mph /  1.6km/h 60% 0.00in /  0mm 69.0 W/m2
07:21 66.7 °F /  19.3 °C 52.3 °F /  11.3 °C 29.70in /  1005.6hPa Calm   2.0mph /  3.2km/h 60% 0.00in /  0mm 76.0 W/m2
07:27 67.1 °F /  19.5 °C 52.7 °F /  11.5 °C 29.70in /  1005.6hPa Calm   2.0mph /  3.2km/h 60% 0.00in /  0mm 88.0 W/m2
07:33 67.5 °F /  19.7 °C 52.7 °F /  11.5 °C 29.70in /  1005.6hPa Calm     59% 0.00in /  0mm 98.0 W/m2
07:39 67.8 °F /  19.9 °C 52.0 °F /  11.1 °C 29.70in /  1005.6hPa Calm   2.0mph /  3.2km/h 57% 0.00in /  0mm 139.0 W/m2
07:46 68.4 °F /  20.2 °C 51.6 °F /  10.9 °C 29.70in /  1005.6hPa East 2.0mph /  3.2km/h 3.0mph /  4.8km/h 55% 0.00in /  0mm 167.0 W/m2
07:52 68.9 °F /  20.5 °C 52.0 °F /  11.1 °C 29.70in /  1005.6hPa Calm   1.0mph /  1.6km/h 55% 0.00in /  0mm 294.0 W/m2
07:58 69.8 °F /  21 °C 50.9 °F /  10.5 °C 29.70in /  1005.6hPa Calm   4.0mph /  6.4km/h 51% 0.00in /  0mm 362.0 W/m2
08:04 71.1 °F /  21.7 °C 50.4 °F /  10.2 °C 29.70in /  1005.6hPa SE 2.9mph /  4.7km/h 4.0mph /  6.4km/h 48% 0.00in /  0mm 367.0 W/m2
08:10 72.0 °F /  22.2 °C 50.7 °F /  10.4 °C 29.70in /  1005.6hPa Calm   3.0mph /  4.8km/h 47% 0.00in /  0mm 374.0 W/m2
08:16 72.9 °F /  22.7 °C 50.4 °F /  10.2 °C 29.70in /  1005.6hPa NNW 0.9mph /  1.4km/h 3.0mph /  4.8km/h 45% 0.00in /  0mm 397.0 W/m2
08:22 73.6 °F /  23.1 °C 51.4 °F /  10.8 °C 29.70in /  1005.6hPa Calm     46% 0.00in /  0mm 424.0 W/m2
08:28 74.3 °F /  23.5 °C 50.9 °F /  10.5 °C 29.70in /  1005.6hPa Calm   2.0mph /  3.2km/h 44% 0.00in /  0mm 457.0 W/m2
08:34 75.2 °F /  24 °C 50.5 °F /  10.3 °C 29.70in /  1005.6hPa Calm   3.0mph /  4.8km/h 42% 0.00in /  0mm 371.0 W/m2
08:40 75.6 °F /  24.2 °C 50.9 °F /  10.5 °C 29.70in /  1005.6hPa Calm   1.0mph /  1.6km/h 42% 0.00in /  0mm 153.0 W/m2
08:46 75.6 °F /  24.2 °C 50.9 °F /  10.5 °C 29.70in /  1005.6hPa Calm   1.0mph /  1.6km/h 42% 0.00in /  0mm 229.0 W/m2
08:57 76.3 °F /  24.6 °C 50.9 °F /  10.5 °C 29.70in /  1005.6hPa North 0.9mph /  1.4km/h 2.0mph /  3.2km/h 41% 0.00in /  0mm 350.0 W/m2
09:03 76.6 °F /  24.8 °C 51.8 °F /  11 °C 29.70in /  1005.6hPa NE 2.0mph /  3.2km/h 2.0mph /  3.2km/h 42% 0.00in /  0mm 584.0 W/m2
09:11 76.6 °F /  24.8 °C 50.5 °F /  10.3 °C 29.70in /  1005.6hPa NNE 2.9mph /  4.7km/h 4.0mph /  6.4km/h 40% 0.00in /  0mm 610.0 W/m2
09:17 77.4 °F /  25.2 °C 50.5 °F /  10.3 °C 29.70in /  1005.6hPa Calm   1.0mph /  1.6km/h 39% 0.00in /  0mm 638.0 W/m2
09:23 77.5 °F /  25.3 °C 51.3 °F /  10.7 °C 29.70in /  1005.6hPa Calm   1.0mph /  1.6km/h 40% 0.00in /  0mm 738.0 W/m2
09:29 77.5 °F /  25.3 °C 50.5 °F /  10.3 °C 29.70in /  1005.6hPa Calm   3.0mph /  4.8km/h 39% 0.00in /  0mm 199.0 W/m2
09:35 77.5 °F /  25.3 °C 50.5 °F /  10.3 °C 29.70in /  1005.6hPa Calm   2.0mph /  3.2km/h 39% 0.00in /  0mm 279.0 W/m2
09:41 77.4 °F /  25.2 °C 50.5 °F /  10.3 °C 29.70in /  1005.6hPa Calm   1.0mph /  1.6km/h 39% 0.00in /  0mm 271.0 W/m2
09:49 77.4 °F /  25.2 °C 50.5 °F /  10.3 °C 29.70in /  1005.6hPa Calm   1.0mph /  1.6km/h 39% 0.00in /  0mm 487.0 W/m2
09:55 77.5 °F /  25.3 °C 52.0 °F /  11.1 °C 29.70in /  1005.6hPa Calm   2.0mph /  3.2km/h 41% 0.00in /  0mm 490.0 W/m2
10:04 78.3 °F /  25.7 °C 50.5 °F /  10.3 °C 29.70in /  1005.6hPa Calm   2.0mph /  3.2km/h 38% 0.00in /  0mm 469.0 W/m2
10:10 78.4 °F /  25.8 °C 50.0 °F /  10 °C 29.70in /  1005.6hPa Calm   3.0mph /  4.8km/h 37% 0.00in /  0mm 462.0 W/m2
10:16 78.6 °F /  25.9 °C 50.9 °F /  10.5 °C 29.70in /  1005.6hPa Calm   3.0mph /  4.8km/h 38% 0.00in /  0mm 501.0 W/m2
10:22 79.2 °F /  26.2 °C 50.7 °F /  10.4 °C 29.70in /  1005.6hPa Calm   3.0mph /  4.8km/h 37% 0.00in /  0mm 499.0 W/m2
10:28 79.3 °F /  26.3 °C 50.7 °F /  10.4 °C 29.70in /  1005.6hPa WNW 0.9mph /  1.4km/h 2.0mph /  3.2km/h 37% 0.00in /  0mm 594.0 W/m2
10:34 79.2 °F /  26.2 °C 49.8 °F /  9.9 °C 29.70in /  1005.6hPa SW 0.9mph /  1.4km/h 3.0mph /  4.8km/h 36% 0.00in /  0mm 633.0 W/m2
10:40 79.3 °F /  26.3 °C 50.7 °F /  10.4 °C 29.70in /  1005.6hPa WNW 0.9mph /  1.4km/h 1.0mph /  1.6km/h 37% 0.00in /  0mm 633.0 W/m2
10:46 80.1 °F /  26.7 °C 50.0 °F /  10 °C 29.69in /  1005.3hPa NNW 0.9mph /  1.4km/h 3.0mph /  4.8km/h 35% 0.00in /  0mm 1165.0 W/m2
10:52 81.3 °F /  27.4 °C 49.5 °F /  9.7 °C 29.69in /  1005.3hPa North 2.0mph /  3.2km/h 3.0mph /  4.8km/h 33% 0.00in /  0mm 1034.0 W/m2
10:58 82.4 °F /  28 °C 48.7 °F /  9.3 °C 29.69in /  1005.3hPa NW 4.0mph /  6.4km/h 5.0mph /  8km/h 31% 0.00in /  0mm 1104.0 W/m2
11:04 82.9 °F /  28.3 °C 49.3 °F /  9.6 °C 29.69in /  1005.3hPa NNW 2.9mph /  4.7km/h 4.0mph /  6.4km/h 31% 0.00in /  0mm 392.0 W/m2
11:10 83.5 °F /  28.6 °C 48.7 °F /  9.3 °C 29.68in /  1005hPa Calm   3.0mph /  4.8km/h 30% 0.00in /  0mm 436.0 W/m2
11:17 84.2 °F /  29 °C 48.6 °F /  9.2 °C 29.68in /  1005hPa SSE 4.9mph /  7.9km/h 9.0mph /  14.5km/h 29% 0.00in /  0mm 1281.0 W/m2
11:23 84.6 °F /  29.2 °C 45.9 °F /  7.7 °C 29.68in /  1005hPa ESE 2.9mph /  4.7km/h 6.0mph /  9.7km/h 26% 0.00in /  0mm 1281.0 W/m2
11:29 84.9 °F /  29.4 °C 44.1 °F /  6.7 °C 29.68in /  1005hPa SE 4.0mph /  6.4km/h 10.0mph /  16.1km/h 24% 0.00in /  0mm 403.0 W/m2
11:35 85.1 °F /  29.5 °C 45.3 °F /  7.4 °C 29.67in /  1004.6hPa ESE 2.0mph /  3.2km/h 3.0mph /  4.8km/h 25% 0.00in /  0mm 881.0 W/m2
11:41 85.3 °F /  29.6 °C 44.4 °F /  6.9 °C 29.68in /  1005hPa ENE 2.0mph /  3.2km/h 7.0mph /  11.3km/h 24% 0.00in /  0mm 396.0 W/m2
11:47 84.6 °F /  29.2 °C 43.9 °F /  6.6 °C 29.67in /  1004.6hPa Calm   4.0mph /  6.4km/h 24% 0.00in /  0mm 418.0 W/m2
11:53 84.7 °F /  29.3 °C 45.0 °F /  7.2 °C 29.67in /  1004.6hPa SE 4.0mph /  6.4km/h 7.0mph /  11.3km/h 25% 0.00in /  0mm 353.0 W/m2
11:59 84.7 °F /  29.3 °C 43.9 °F /  6.6 °C 29.67in /  1004.6hPa SE 11.0mph /  17.7km/h 11.0mph /  17.7km/h 24% 0.00in /  0mm 410.0 W/m2
12:08 84.6 °F /  29.2 °C 43.9 °F /  6.6 °C 29.67in /  1004.6hPa Calm   4.0mph /  6.4km/h 24% 0.00in /  0mm 1322.0 W/m2
12:14 85.6 °F /  29.8 °C 43.5 °F /  6.4 °C 29.67in /  1004.6hPa East 4.0mph /  6.4km/h 6.0mph /  9.7km/h 23% 0.00in /  0mm 626.0 W/m2
12:20 86.4 °F /  30.2 °C 43.0 °F /  6.1 °C 29.67in /  1004.6hPa NNE 4.9mph /  7.9km/h 5.0mph /  8km/h 22% 0.00in /  0mm 380.0 W/m2
12:28 86.4 °F /  30.2 °C 43.0 °F /  6.1 °C 29.67in /  1004.6hPa ESE 0.9mph /  1.4km/h 11.0mph /  17.7km/h 22% 0.00in /  0mm 1468.0 W/m2
12:34 87.3 °F /  30.7 °C 43.7 °F /  6.5 °C 29.67in /  1004.6hPa East 0.9mph /  1.4km/h 5.0mph /  8km/h 22% 0.00in /  0mm 388.0 W/m2
12:40 87.3 °F /  30.7 °C 43.7 °F /  6.5 °C 29.66in /  1004.3hPa SE 4.0mph /  6.4km/h 8.0mph /  12.9km/h 22% 0.00in /  0mm 415.0 W/m2
12:46 86.7 °F /  30.4 °C 43.3 °F /  6.3 °C 29.66in /  1004.3hPa ENE 2.9mph /  4.7km/h 6.0mph /  9.7km/h 22% 0.00in /  0mm 410.0 W/m2
12:52 86.2 °F /  30.1 °C 44.1 °F /  6.7 °C 29.66in /  1004.3hPa ESE 2.0mph /  3.2km/h 4.0mph /  6.4km/h 23% 0.00in /  0mm 362.0 W/m2
12:59 85.6 °F /  29.8 °C 43.5 °F /  6.4 °C 29.66in /  1004.3hPa ESE 8.1mph /  13km/h 12.0mph /  19.3km/h 23% 0.00in /  0mm 364.0 W/m2
13:05 85.3 °F /  29.6 °C 43.3 °F /  6.3 °C 29.66in /  1004.3hPa SSE 2.9mph /  4.7km/h 8.0mph /  12.9km/h 23% 0.00in /  0mm 424.0 W/m2
13:11 85.5 °F /  29.7 °C 46.6 °F /  8.1 °C 29.66in /  1004.3hPa East 4.9mph /  7.9km/h 6.0mph /  9.7km/h 26% 0.00in /  0mm 448.0 W/m2
13:17 85.3 °F /  29.6 °C 43.3 °F /  6.3 °C 29.66in /  1004.3hPa WSW 0.9mph /  1.4km/h 3.0mph /  4.8km/h 23% 0.00in /  0mm 956.0 W/m2
13:23 85.5 °F /  29.7 °C 45.7 °F /  7.6 °C 29.66in /  1004.3hPa NE 6.0mph /  9.7km/h 9.0mph /  14.5km/h 25% 0.00in /  0mm 1450.0 W/m2
13:29 86.2 °F /  30.1 °C 44.1 °F /  6.7 °C 29.65in /  1003.9hPa East 2.0mph /  3.2km/h 6.0mph /  9.7km/h 23% 0.00in /  0mm 399.0 W/m2
13:35 86.0 °F /  30 °C 43.9 °F /  6.6 °C 29.65in /  1003.9hPa ESE 6.0mph /  9.7km/h 6.0mph /  9.7km/h 23% 0.00in /  0mm 381.0 W/m2
13:41 85.6 °F /  29.8 °C 44.8 °F /  7.1 °C 29.65in /  1003.9hPa Calm     24% 0.00in /  0mm 383.0 W/m2
13:50 85.8 °F /  29.9 °C 43.7 °F /  6.5 °C 29.65in /  1003.9hPa SSE 4.9mph /  7.9km/h 14.0mph /  22.5km/h 23% 0.00in /  0mm 399.0 W/m2
13:56 86.2 °F /  30.1 °C 42.8 °F /  6 °C 29.65in /  1003.9hPa NNE 4.0mph /  6.4km/h 5.0mph /  8km/h 22% 0.00in /  0mm 1355.0 W/m2
14:04 87.4 °F /  30.8 °C 41.4 °F /  5.2 °C 29.64in /  1003.6hPa ENE 4.0mph /  6.4km/h 6.0mph /  9.7km/h 20% 0.00in /  0mm 1255.0 W/m2
14:10 88.3 °F /  31.3 °C 43.5 °F /  6.4 °C 29.64in /  1003.6hPa North 2.0mph /  3.2km/h 7.0mph /  11.3km/h 21% 0.00in /  0mm 1216.0 W/m2
14:18 88.5 °F /  31.4 °C 42.3 °F /  5.7 °C 29.64in /  1003.6hPa ESE 2.9mph /  4.7km/h 6.0mph /  9.7km/h 20% 0.00in /  0mm 278.0 W/m2
14:24 88.2 °F /  31.2 °C 40.6 °F /  4.8 °C 29.63in /  1003.3hPa South 0.9mph /  1.4km/h 4.0mph /  6.4km/h 19% 0.00in /  0mm 250.0 W/m2
14:30 87.4 °F /  30.8 °C 41.4 °F /  5.2 °C 29.64in /  1003.6hPa South 2.9mph /  4.7km/h 10.0mph /  16.1km/h 20% 0.00in /  0mm 364.0 W/m2
14:39 86.4 °F /  30.2 °C 41.9 °F /  5.5 °C 29.63in /  1003.3hPa Calm   1.0mph /  1.6km/h 21% 0.00in /  0mm 294.0 W/m2
14:45 86.4 °F /  30.2 °C 41.9 °F /  5.5 °C 29.63in /  1003.3hPa SSW 2.9mph /  4.7km/h 4.0mph /  6.4km/h 21% 0.00in /  0mm 288.0 W/m2
14:51 85.8 °F /  29.9 °C 41.4 °F /  5.2 °C 29.62in /  1002.9hPa Calm   5.0mph /  8km/h 21% 0.00in /  0mm 292.0 W/m2
14:57 86.4 °F /  30.2 °C 41.9 °F /  5.5 °C 29.62in /  1002.9hPa WSW 0.9mph /  1.4km/h 3.0mph /  4.8km/h 21% 0.00in /  0mm 334.0 W/m2
15:02 86.9 °F /  30.5 °C 41.0 °F /  5 °C 29.62in /  1002.9hPa North 0.9mph /  1.4km/h 6.0mph /  9.7km/h 20% 0.00in /  0mm 1111.0 W/m2
15:07 88.2 °F /  31.2 °C 42.1 °F /  5.6 °C 29.62in /  1002.9hPa NE 4.0mph /  6.4km/h 6.0mph /  9.7km/h 20% 0.00in /  0mm 1113.0 W/m2
15:13 88.5 °F /  31.4 °C 42.3 °F /  5.7 °C 29.62in /  1002.9hPa East 2.9mph /  4.7km/h 7.0mph /  11.3km/h 20% 0.00in /  0mm 207.0 W/m2
15:22 88.2 °F /  31.2 °C 42.1 °F /  5.6 °C 29.62in /  1002.9hPa ESE 2.0mph /  3.2km/h 8.0mph /  12.9km/h 20% 0.00in /  0mm 204.0 W/m2
15:28 88.2 °F /  31.2 °C 42.1 °F /  5.6 °C 29.62in /  1002.9hPa East 4.0mph /  6.4km/h 6.0mph /  9.7km/h 20% 0.00in /  0mm 1065.0 W/m2
15:36 87.6 °F /  30.9 °C 41.5 °F /  5.3 °C 29.61in /  1002.6hPa Calm   4.0mph /  6.4km/h 20% 0.00in /  0mm 214.0 W/m2
15:42 87.4 °F /  30.8 °C 41.4 °F /  5.2 °C 29.61in /  1002.6hPa Calm   3.0mph /  4.8km/h 20% 0.00in /  0mm 223.0 W/m2
15:48 87.3 °F /  30.7 °C 42.6 °F /  5.9 °C 29.60in /  1002.3hPa East 6.0mph /  9.7km/h 8.0mph /  12.9km/h 21% 0.00in /  0mm 279.0 W/m2
15:54 87.1 °F /  30.6 °C 42.4 °F /  5.8 °C 29.60in /  1002.3hPa ENE 2.9mph /  4.7km/h 7.0mph /  11.3km/h 21% 0.00in /  0mm 167.0 W/m2
16:00 86.4 °F /  30.2 °C 43.0 °F /  6.1 °C 29.60in /  1002.3hPa SSE 2.9mph /  4.7km/h 4.0mph /  6.4km/h 22% 0.00in /  0mm 185.0 W/m2
16:08 85.6 °F /  29.8 °C 42.4 °F /  5.8 °C 29.60in /  1002.3hPa SE 6.0mph /  9.7km/h 12.0mph /  19.3km/h 22% 0.00in /  0mm 181.0 W/m2
16:14 85.5 °F /  29.7 °C 42.3 °F /  5.7 °C 29.60in /  1002.3hPa SE 6.0mph /  9.7km/h 7.0mph /  11.3km/h 22% 0.00in /  0mm 160.0 W/m2
16:22 85.3 °F /  29.6 °C 43.3 °F /  6.3 °C 29.59in /  1001.9hPa Calm   8.0mph /  12.9km/h 23% 0.00in /  0mm 162.0 W/m2
16:28 85.3 °F /  29.6 °C 43.3 °F /  6.3 °C 29.59in /  1001.9hPa SSE 2.9mph /  4.7km/h 7.0mph /  11.3km/h 23% 0.00in /  0mm 795.0 W/m2
16:34 86.2 °F /  30.1 °C 44.1 °F /  6.7 °C 29.59in /  1001.9hPa Calm   1.0mph /  1.6km/h 23% 0.00in /  0mm 230.0 W/m2
16:41 87.1 °F /  30.6 °C 43.7 °F /  6.5 °C 29.59in /  1001.9hPa Calm   1.0mph /  1.6km/h 22% 0.00in /  0mm 775.0 W/m2
16:46 88.2 °F /  31.2 °C 42.1 °F /  5.6 °C 29.58in /  1001.6hPa NNE 2.0mph /  3.2km/h 5.0mph /  8km/h 20% 0.00in /  0mm 740.0 W/m2
16:53 89.6 °F /  32 °C 43.2 °F /  6.2 °C 29.58in /  1001.6hPa SE 2.9mph /  4.7km/h 5.0mph /  8km/h 20% 0.00in /  0mm 728.0 W/m2
16:59 89.8 °F /  32.1 °C 43.3 °F /  6.3 °C 29.58in /  1001.6hPa ESE 0.9mph /  1.4km/h 6.0mph /  9.7km/h 20% 0.00in /  0mm 130.0 W/m2
17:05 89.2 °F /  31.8 °C 41.5 °F /  5.3 °C 29.58in /  1001.6hPa NE 0.9mph /  1.4km/h 1.0mph /  1.6km/h 19% 0.00in /  0mm 105.0 W/m2
17:11 88.9 °F /  31.6 °C 43.9 °F /  6.6 °C 29.58in /  1001.6hPa Calm     21% 0.00in /  0mm 162.0 W/m2
17:44 85.3 °F /  29.6 °C 43.3 °F /  6.3 °C 29.58in /  1001.6hPa ESE 2.0mph /  3.2km/h 4.0mph /  6.4km/h 23% 0.00in /  0mm 74.0 W/m2
17:50 84.9 °F /  29.4 °C 41.9 °F /  5.5 °C 29.59in /  1001.9hPa South 6.9mph /  11.1km/h 8.0mph /  12.9km/h 22% 0.00in /  0mm 53.0 W/m2
17:56 84.7 °F /  29.3 °C 42.8 °F /  6 °C 29.59in /  1001.9hPa SE 0.9mph /  1.4km/h 3.0mph /  4.8km/h 23% 0.00in /  0mm 56.0 W/m2
18:02 84.7 °F /  29.3 °C 42.8 °F /  6 °C 29.59in /  1001.9hPa Calm   1.0mph /  1.6km/h 23% 0.00in /  0mm 60.0 W/m2
18:08 84.4 °F /  29.1 °C 44.8 °F /  7.1 °C 29.59in /  1001.9hPa Calm   5.0mph /  8km/h 25% 0.00in /  0mm 84.0 W/m2
18:14 83.8 °F /  28.8 °C 45.3 °F /  7.4 °C 29.59in /  1001.9hPa West 0.9mph /  1.4km/h 1.0mph /  1.6km/h 26% 0.00in /  0mm 100.0 W/m2
18:20 83.5 °F /  28.6 °C 46.0 °F /  7.8 °C 29.59in /  1001.9hPa West 2.0mph /  3.2km/h 6.0mph /  9.7km/h 27% 0.00in /  0mm 109.0 W/m2
18:27 82.8 °F /  28.2 °C 49.1 °F /  9.5 °C 29.59in /  1001.9hPa SW 6.9mph /  11.1km/h 9.0mph /  14.5km/h 31% 0.00in /  0mm 121.0 W/m2
18:33 80.8 °F /  27.1 °C 52.2 °F /  11.2 °C 29.60in /  1002.3hPa SW 4.0mph /  6.4km/h 12.0mph /  19.3km/h 37% 0.00in /  0mm 116.0 W/m2
18:45 79.3 °F /  26.3 °C 52.9 °F /  11.6 °C 29.61in /  1002.6hPa West 2.0mph /  3.2km/h 8.0mph /  12.9km/h 40% 0.00in /  0mm 90.0 W/m2
18:51 78.6 °F /  25.9 °C 52.9 °F /  11.6 °C 29.61in /  1002.6hPa West 10.1mph /  16.3km/h 14.0mph /  22.5km/h 41% 0.00in /  0mm 72.0 W/m2
18:57 77.9 °F /  25.5 °C 53.6 °F /  12 °C 29.61in /  1002.6hPa SW 6.0mph /  9.7km/h 10.0mph /  16.1km/h 43% 0.00in /  0mm 46.0 W/m2
19:03 77.2 °F /  25.1 °C 52.9 °F /  11.6 °C 29.62in /  1002.9hPa WSW 2.9mph /  4.7km/h 11.0mph /  17.7km/h 43% 0.00in /  0mm 37.0 W/m2
19:09 76.6 °F /  24.8 °C 52.5 °F /  11.4 °C 29.62in /  1002.9hPa SW 2.9mph /  4.7km/h 8.0mph /  12.9km/h 43% 0.00in /  0mm 30.0 W/m2
19:16 76.5 °F /  24.7 °C 52.9 °F /  11.6 °C 29.62in /  1002.9hPa Calm   4.0mph /  6.4km/h 44% 0.00in /  0mm 16.0 W/m2
19:22 76.3 °F /  24.6 °C 52.7 °F /  11.5 °C 29.62in /  1002.9hPa SSW 2.0mph /  3.2km/h 9.0mph /  14.5km/h 44% 0.00in /  0mm 11.0 W/m2
19:28 75.9 °F /  24.4 °C 52.5 °F /  11.4 °C 29.62in /  1002.9hPa Calm   3.0mph /  4.8km/h 44% 0.00in /  0mm 7.0 W/m2
19:34 75.9 °F /  24.4 °C 53.1 °F /  11.7 °C 29.62in /  1002.9hPa Calm   1.0mph /  1.6km/h 45% 0.00in /  0mm 0.0 W/m2
19:40 75.9 °F /  24.4 °C 53.1 °F /  11.7 °C 29.63in /  1003.3hPa Calm     45% 0.00in /  0mm 0.0 W/m2
19:46 75.9 °F /  24.4 °C 53.1 °F /  11.7 °C 29.62in /  1002.9hPa Calm     45% 0.00in /  0mm 0.0 W/m2
19:52 75.7 °F /  24.3 °C 52.9 °F /  11.6 °C 29.63in /  1003.3hPa Calm   1.0mph /  1.6km/h 45% 0.00in /  0mm 0.0 W/m2
19:58 75.7 °F /  24.3 °C 50.4 °F /  10.2 °C 29.63in /  1003.3hPa Calm   3.0mph /  4.8km/h 41% 0.00in /  0mm 0.0 W/m2
20:05 75.7 °F /  24.3 °C 51.1 °F /  10.6 °C 29.64in /  1003.6hPa Calm     42% 0.00in /  0mm 0.0 W/m2
20:11 75.7 °F /  24.3 °C 51.1 °F /  10.6 °C 29.64in /  1003.6hPa West 0.9mph /  1.4km/h 1.0mph /  1.6km/h 42% 0.00in /  0mm 0.0 W/m2
20:17 75.7 °F /  24.3 °C 51.6 °F /  10.9 °C 29.64in /  1003.6hPa West 2.9mph /  4.7km/h 4.0mph /  6.4km/h 43% 0.00in /  0mm 0.0 W/m2
20:23 75.6 °F /  24.2 °C 51.4 °F /  10.8 °C 29.64in /  1003.6hPa Calm   4.0mph /  6.4km/h 43% 0.00in /  0mm 0.0 W/m2
20:29 75.6 °F /  24.2 °C 52.2 °F /  11.2 °C 29.64in /  1003.6hPa Calm   2.0mph /  3.2km/h 44% 0.00in /  0mm 0.0 W/m2
20:35 75.6 °F /  24.2 °C 52.2 °F /  11.2 °C 29.64in /  1003.6hPa Calm   1.0mph /  1.6km/h 44% 0.00in /  0mm 0.0 W/m2
20:41 75.4 °F /  24.1 °C 51.3 °F /  10.7 °C 29.65in /  1003.9hPa Calm   6.0mph /  9.7km/h 43% 0.00in /  0mm 0.0 W/m2
20:48 75.2 °F /  24 °C 51.1 °F /  10.6 °C 29.65in /  1003.9hPa Calm   5.0mph /  8km/h 43% 0.00in /  0mm 0.0 W/m2
20:54 75.0 °F /  23.9 °C 51.6 °F /  10.9 °C 29.65in /  1003.9hPa SSE 2.0mph /  3.2km/h 5.0mph /  8km/h 44% 0.00in /  0mm 0.0 W/m2
21:00 74.8 °F /  23.8 °C 52.2 °F /  11.2 °C 29.65in /  1003.9hPa SE 2.9mph /  4.7km/h 8.0mph /  12.9km/h 45% 0.00in /  0mm 0.0 W/m2
21:06 74.7 °F /  23.7 °C 52.0 °F /  11.1 °C 29.65in /  1003.9hPa Calm   6.0mph /  9.7km/h 45% 0.00in /  0mm 0.0 W/m2
21:12 74.7 °F /  23.7 °C 52.0 °F /  11.1 °C 29.65in /  1003.9hPa Calm   6.0mph /  9.7km/h 45% 0.00in /  0mm 0.0 W/m2
21:18 74.5 °F /  23.6 °C 52.3 °F /  11.3 °C 29.65in /  1003.9hPa Calm   5.0mph /  8km/h 46% 0.00in /  0mm 0.0 W/m2
21:24 74.5 °F /  23.6 °C 52.3 °F /  11.3 °C 29.65in /  1003.9hPa Calm   2.0mph /  3.2km/h 46% 0.00in /  0mm 0.0 W/m2
21:30 74.1 °F /  23.4 °C 52.0 °F /  11.1 °C 29.65in /  1003.9hPa SSE 0.9mph /  1.4km/h 3.0mph /  4.8km/h 46% 0.00in /  0mm 0.0 W/m2
21:37 74.1 °F /  23.4 °C 52.0 °F /  11.1 °C 29.65in /  1003.9hPa South 0.9mph /  1.4km/h 4.0mph /  6.4km/h 46% 0.00in /  0mm 0.0 W/m2
21:43 74.1 °F /  23.4 °C 52.0 °F /  11.1 °C 29.65in /  1003.9hPa SSE 6.9mph /  11.1km/h 9.0mph /  14.5km/h 46% 0.00in /  0mm 0.0 W/m2
21:49 73.9 °F /  23.3 °C 51.8 °F /  11 °C 29.65in /  1003.9hPa South 4.9mph /  7.9km/h 10.0mph /  16.1km/h 46% 0.00in /  0mm 0.0 W/m2
21:51 73.9 °F /  23.3 °C 51.8 °F /  11 °C 29.66in /  1004.3hPa SE 4.0mph /  6.4km/h 9.0mph /  14.5km/h 46% 0.00in /  0mm 0.0 W/m2
21:57 73.9 °F /  23.3 °C 51.8 °F /  11 °C 29.66in /  1004.3hPa SSE 4.9mph /  7.9km/h 9.0mph /  14.5km/h 46% 0.00in /  0mm 0.0 W/m2
22:03 73.9 °F /  23.3 °C 51.8 °F /  11 °C 29.66in /  1004.3hPa South 0.9mph /  1.4km/h 7.0mph /  11.3km/h 46% 0.00in /  0mm 0.0 W/m2
22:09 73.9 °F /  23.3 °C 51.8 °F /  11 °C 29.66in /  1004.3hPa SSE 2.0mph /  3.2km/h 6.0mph /  9.7km/h 46% 0.00in /  0mm 0.0 W/m2
22:15 73.9 °F /  23.3 °C 51.8 °F /  11 °C 29.66in /  1004.3hPa SE 2.0mph /  3.2km/h 6.0mph /  9.7km/h 46% 0.00in /  0mm 0.0 W/m2
22:21 73.8 °F /  23.2 °C 51.6 °F /  10.9 °C 29.67in /  1004.6hPa SSE 2.0mph /  3.2km/h 3.0mph /  4.8km/h 46% 0.00in /  0mm 0.0 W/m2
22:28 73.8 °F /  23.2 °C 51.6 °F /  10.9 °C 29.67in /  1004.6hPa SE 6.0mph /  9.7km/h 6.0mph /  9.7km/h 46% 0.00in /  0mm 0.0 W/m2
22:34 73.6 °F /  23.1 °C 51.4 °F /  10.8 °C 29.67in /  1004.6hPa SSW 0.9mph /  1.4km/h 4.0mph /  6.4km/h 46% 0.00in /  0mm 0.0 W/m2
22:40 73.6 °F /  23.1 °C 51.4 °F /  10.8 °C 29.67in /  1004.6hPa SSW 2.9mph /  4.7km/h 5.0mph /  8km/h 46% 0.00in /  0mm 0.0 W/m2
22:46 73.6 °F /  23.1 °C 52.2 °F /  11.2 °C 29.67in /  1004.6hPa SSE 0.9mph /  1.4km/h 3.0mph /  4.8km/h 47% 0.00in /  0mm 0.0 W/m2
22:52 73.4 °F /  23 °C 52.0 °F /  11.1 °C 29.68in /  1005hPa South 0.9mph /  1.4km/h 5.0mph /  8km/h 47% 0.00in /  0mm 0.0 W/m2
22:58 73.2 °F /  22.9 °C 51.8 °F /  11 °C 29.68in /  1005hPa SSW 2.9mph /  4.7km/h 5.0mph /  8km/h 47% 0.00in /  0mm 0.0 W/m2
23:04 73.2 °F /  22.9 °C 51.8 °F /  11 °C 29.68in /  1005hPa WSW 0.9mph /  1.4km/h 4.0mph /  6.4km/h 47% 0.00in /  0mm 0.0 W/m2
23:10 73.0 °F /  22.8 °C 51.6 °F /  10.9 °C 29.68in /  1005hPa Calm   4.0mph /  6.4km/h 47% 0.00in /  0mm 0.0 W/m2
23:17 73.0 °F /  22.8 °C 51.6 °F /  10.9 °C 29.68in /  1005hPa SSW 0.9mph /  1.4km/h 3.0mph /  4.8km/h 47% 0.00in /  0mm 0.0 W/m2
23:23 72.9 °F /  22.7 °C 52.0 °F /  11.1 °C 29.68in /  1005hPa SSW 0.9mph /  1.4km/h 5.0mph /  8km/h 48% 0.00in /  0mm 0.0 W/m2
23:29 72.7 °F /  22.6 °C 51.8 °F /  11 °C 29.68in /  1005hPa SSW 0.9mph /  1.4km/h 2.0mph /  3.2km/h 48% 0.00in /  0mm 0.0 W/m2
23:35 72.7 °F /  22.6 °C 51.8 °F /  11 °C 29.67in /  1004.6hPa Calm   1.0mph /  1.6km/h 48% 0.00in /  0mm 0.0 W/m2
23:41 72.3 °F /  22.4 °C 51.4 °F /  10.8 °C 29.67in /  1004.6hPa Calm   1.0mph /  1.6km/h 48% 0.00in /  0mm 0.0 W/m2
23:47 72.3 °F /  22.4 °C 51.4 °F /  10.8 °C 29.67in /  1004.6hPa SSW 2.0mph /  3.2km/h 2.0mph /  3.2km/h 48% 0.00in /  0mm 0.0 W/m2
23:53 72.1 °F /  22.3 °C 51.4 °F /  10.8 °C 29.68in /  1005hPa WSW 2.0mph /  3.2km/h 2.0mph /  3.2km/h 48% 0.00in /  0mm 0.0 W/m2
23:59 72.1 °F /  22.3 °C 51.4 °F /  10.8 °C 29.67in /  1004.6hPa Calm   2.0mph /  3.2km/h 48% 0.00in /  0mm 0.0 W/m2
Olympia, Windhoek, Namibia
Compliments of Weather Underground - 3 mb